sensor_id;sensor_type;location;lat;lon;timestamp;temperature;humidity
62904;DHT22;49000;50.698;13.322;2023-02-15T00:01:08;-0.90;99.90
62904;DHT22;49000;50.698;13.322;2023-02-15T00:03:34;-1.00;99.90
62904;DHT22;49000;50.698;13.322;2023-02-15T00:05:59;-1.10;99.90
62904;DHT22;49000;50.698;13.322;2023-02-15T00:08:25;-1.00;99.90
62904;DHT22;49000;50.698;13.322;2023-02-15T00:10:50;-1.20;99.90
62904;DHT22;49000;50.698;13.322;2023-02-15T00:13:16;-1.50;99.90
62904;DHT22;49000;50.698;13.322;2023-02-15T00:15:41;-1.50;99.90
62904;DHT22;49000;50.698;13.322;2023-02-15T00:18:07;-1.30;99.90
62904;DHT22;49000;50.698;13.322;2023-02-15T00:20:32;-1.00;99.90
62904;DHT22;49000;50.698;13.322;2023-02-15T00:22:58;-1.40;99.90
62904;DHT22;49000;50.698;13.322;2023-02-15T00:25:24;-1.10;99.90
62904;DHT22;49000;50.698;13.322;2023-02-15T00:27:49;-1.00;99.90
62904;DHT22;49000;50.698;13.322;2023-02-15T00:30:15;-1.30;99.90
62904;DHT22;49000;50.698;13.322;2023-02-15T00:32:41;-0.90;99.90
62904;DHT22;49000;50.698;13.322;2023-02-15T00:35:06;-1.20;99.90
62904;DHT22;49000;50.698;13.322;2023-02-15T00:37:32;-0.90;99.90
62904;DHT22;49000;50.698;13.322;2023-02-15T00:39:58;-1.10;99.90
62904;DHT22;49000;50.698;13.322;2023-02-15T00:42:23;-1.00;99.90
62904;DHT22;49000;50.698;13.322;2023-02-15T00:44:49;-1.10;99.90
62904;DHT22;49000;50.698;13.322;2023-02-15T00:47:14;-1.10;99.90
62904;DHT22;49000;50.698;13.322;2023-02-15T00:49:39;-0.90;99.90
62904;DHT22;49000;50.698;13.322;2023-02-15T00:52:05;-1.00;99.90
62904;DHT22;49000;50.698;13.322;2023-02-15T00:54:30;-1.50;99.90
62904;DHT22;49000;50.698;13.322;2023-02-15T00:56:56;-1.20;99.90
62904;DHT22;49000;50.698;13.322;2023-02-15T00:59:21;-1.10;99.90
62904;DHT22;49000;50.698;13.322;2023-02-15T01:01:47;-1.20;99.90
62904;DHT22;49000;50.698;13.322;2023-02-15T01:04:12;-1.50;99.90
62904;DHT22;49000;50.698;13.322;2023-02-15T01:06:38;-1.00;99.90
62904;DHT22;49000;50.698;13.322;2023-02-15T01:09:03;-1.40;99.90
62904;DHT22;49000;50.698;13.322;2023-02-15T01:11:29;-1.00;99.90
62904;DHT22;49000;50.698;13.322;2023-02-15T01:13:56;-1.10;99.90
62904;DHT22;49000;50.698;13.322;2023-02-15T01:16:23;-1.50;99.90
62904;DHT22;49000;50.698;13.322;2023-02-15T01:18:49;-1.20;99.90
62904;DHT22;49000;50.698;13.322;2023-02-15T01:21:20;-1.30;99.90
62904;DHT22;49000;50.698;13.322;2023-02-15T01:23:46;-1.60;99.90
62904;DHT22;49000;50.698;13.322;2023-02-15T01:26:12;-1.30;99.90
62904;DHT22;49000;50.698;13.322;2023-02-15T01:28:38;-1.30;99.90
62904;DHT22;49000;50.698;13.322;2023-02-15T01:31:09;-1.80;99.90
62904;DHT22;49000;50.698;13.322;2023-02-15T01:33:35;-1.10;99.90
62904;DHT22;49000;50.698;13.322;2023-02-15T01:36:01;-1.30;99.90
62904;DHT22;49000;50.698;13.322;2023-02-15T01:38:26;-1.40;99.90
62904;DHT22;49000;50.698;13.322;2023-02-15T01:40:52;-1.30;99.90
62904;DHT22;49000;50.698;13.322;2023-02-15T01:43:19;-1.30;99.90
62904;DHT22;49000;50.698;13.322;2023-02-15T01:45:46;-1.70;99.90
62904;DHT22;49000;50.698;13.322;2023-02-15T01:48:19;-1.30;99.90
62904;DHT22;49000;50.698;13.322;2023-02-15T01:50:53;-1.30;99.90
62904;DHT22;49000;50.698;13.322;2023-02-15T01:53:42;-1.40;99.90
62904;DHT22;49000;50.698;13.322;2023-02-15T01:56:15;-1.50;99.90
62904;DHT22;49000;50.698;13.322;2023-02-15T01:58:43;-1.50;99.90
62904;DHT22;49000;50.698;13.322;2023-02-15T02:01:09;-2.00;99.90
62904;DHT22;49000;50.698;13.322;2023-02-15T02:03:56;-1.50;99.90
62904;DHT22;49000;50.698;13.322;2023-02-15T02:06:24;-1.30;99.90
62904;DHT22;49000;50.698;13.322;2023-02-15T02:08:52;-1.50;99.90
62904;DHT22;49000;50.698;13.322;2023-02-15T02:11:18;-1.40;99.90
62904;DHT22;49000;50.698;13.322;2023-02-15T02:13:44;-1.60;99.90
62904;DHT22;49000;50.698;13.322;2023-02-15T02:16:15;-2.20;99.90
62904;DHT22;49000;50.698;13.322;2023-02-15T02:18:59;-1.60;99.90
62904;DHT22;49000;50.698;13.322;2023-02-15T02:21:34;-1.70;99.90
62904;DHT22;49000;50.698;13.322;2023-02-15T02:30:02;-1.70;99.90
62904;DHT22;49000;50.698;13.322;2023-02-15T02:38:00;-2.30;99.90
62904;DHT22;49000;50.698;13.322;2023-02-15T02:40:55;-1.80;99.90
62904;DHT22;49000;50.698;13.322;2023-02-15T02:49:52;-2.00;99.90
62904;DHT22;49000;50.698;13.322;2023-02-15T02:52:40;-1.90;99.90
62904;DHT22;49000;50.698;13.322;2023-02-15T02:55:30;-1.90;99.90
62904;DHT22;49000;50.698;13.322;2023-02-15T02:58:17;-2.40;99.90
62904;DHT22;49000;50.698;13.322;2023-02-15T03:00:57;-2.00;99.90
62904;DHT22;49000;50.698;13.322;2023-02-15T03:03:30;-2.10;99.90
62904;DHT22;49000;50.698;13.322;2023-02-15T03:06:00;-2.00;99.90
62904;DHT22;49000;50.698;13.322;2023-02-15T03:08:33;-2.30;99.90
62904;DHT22;49000;50.698;13.322;2023-02-15T03:11:02;-2.10;99.90
62904;DHT22;49000;50.698;13.322;2023-02-15T03:13:28;-2.10;99.90
62904;DHT22;49000;50.698;13.322;2023-02-15T03:15:54;-2.40;99.90
62904;DHT22;49000;50.698;13.322;2023-02-15T03:18:45;-2.00;99.90
62904;DHT22;49000;50.698;13.322;2023-02-15T03:21:20;-1.80;99.90
62904;DHT22;49000;50.698;13.322;2023-02-15T03:23:52;-2.10;99.90
62904;DHT22;49000;50.698;13.322;2023-02-15T03:26:18;-2.30;99.90
62904;DHT22;49000;50.698;13.322;2023-02-15T03:28:47;-1.80;99.90
62904;DHT22;49000;50.698;13.322;2023-02-15T03:31:14;-1.80;99.90
62904;DHT22;49000;50.698;13.322;2023-02-15T03:33:53;-1.80;99.90
62904;DHT22;49000;50.698;13.322;2023-02-15T03:36:25;-2.00;99.90
62904;DHT22;49000;50.698;13.322;2023-02-15T03:41:26;-1.60;99.90
62904;DHT22;49000;50.698;13.322;2023-02-15T03:43:56;-2.00;99.90
62904;DHT22;49000;50.698;13.322;2023-02-15T03:46:32;-2.00;99.90
62904;DHT22;49000;50.698;13.322;2023-02-15T03:49:09;-1.70;99.90
62904;DHT22;49000;50.698;13.322;2023-02-15T03:51:38;-2.40;99.90
62904;DHT22;49000;50.698;13.322;2023-02-15T03:56:40;-1.80;99.90
62904;DHT22;49000;50.698;13.322;2023-02-15T03:59:07;-2.00;99.90
62904;DHT22;49000;50.698;13.322;2023-02-15T04:02:12;-2.30;99.90
62904;DHT22;49000;50.698;13.322;2023-02-15T04:04:46;-1.70;99.90
62904;DHT22;49000;50.698;13.322;2023-02-15T04:07:12;-2.10;99.90
62904;DHT22;49000;50.698;13.322;2023-02-15T04:09:37;-2.10;99.90
62904;DHT22;49000;50.698;13.322;2023-02-15T04:12:30;-1.80;99.90
62904;DHT22;49000;50.698;13.322;2023-02-15T04:14:56;-1.90;99.90
62904;DHT22;49000;50.698;13.322;2023-02-15T04:17:40;-2.40;99.90
62904;DHT22;49000;50.698;13.322;2023-02-15T04:20:06;-2.30;99.90
62904;DHT22;49000;50.698;13.322;2023-02-15T04:22:50;-1.90;99.90
62904;DHT22;49000;50.698;13.322;2023-02-15T04:25:34;-2.60;99.90
62904;DHT22;49000;50.698;13.322;2023-02-15T04:28:00;-2.10;99.90
62904;DHT22;49000;50.698;13.322;2023-02-15T04:30:26;-2.00;99.90
62904;DHT22;49000;50.698;13.322;2023-02-15T04:32:53;-1.90;99.90
62904;DHT22;49000;50.698;13.322;2023-02-15T04:35:19;-2.50;99.90
62904;DHT22;49000;50.698;13.322;2023-02-15T04:37:44;-2.50;99.90
62904;DHT22;49000;50.698;13.322;2023-02-15T04:40:12;-2.00;99.90
62904;DHT22;49000;50.698;13.322;2023-02-15T04:42:38;-2.10;99.90
62904;DHT22;49000;50.698;13.322;2023-02-15T04:45:04;-1.80;99.90
62904;DHT22;49000;50.698;13.322;2023-02-15T04:47:29;-2.20;99.90
62904;DHT22;49000;50.698;13.322;2023-02-15T04:49:55;-2.50;99.90
62904;DHT22;49000;50.698;13.322;2023-02-15T04:52:21;-2.00;99.90
62904;DHT22;49000;50.698;13.322;2023-02-15T04:54:46;-2.20;99.90
62904;DHT22;49000;50.698;13.322;2023-02-15T04:57:12;-2.00;99.90
62904;DHT22;49000;50.698;13.322;2023-02-15T04:59:37;-2.10;99.90
62904;DHT22;49000;50.698;13.322;2023-02-15T05:02:03;-2.30;99.90
62904;DHT22;49000;50.698;13.322;2023-02-15T05:04:29;-2.10;99.90
62904;DHT22;49000;50.698;13.322;2023-02-15T05:06:54;-2.10;99.90
62904;DHT22;49000;50.698;13.322;2023-02-15T05:09:20;-2.30;99.90
62904;DHT22;49000;50.698;13.322;2023-02-15T05:11:45;-2.60;99.90
62904;DHT22;49000;50.698;13.322;2023-02-15T05:14:11;-2.40;99.90
62904;DHT22;49000;50.698;13.322;2023-02-15T05:16:36;-2.70;99.90
62904;DHT22;49000;50.698;13.322;2023-02-15T05:19:02;-2.30;99.90
62904;DHT22;49000;50.698;13.322;2023-02-15T05:21:28;-2.10;99.90
62904;DHT22;49000;50.698;13.322;2023-02-15T05:23:53;-2.80;99.90
62904;DHT22;49000;50.698;13.322;2023-02-15T05:26:21;-2.20;99.90
62904;DHT22;49000;50.698;13.322;2023-02-15T05:29:06;-2.50;99.90
62904;DHT22;49000;50.698;13.322;2023-02-15T05:31:32;-2.50;99.90
62904;DHT22;49000;50.698;13.322;2023-02-15T05:33:58;-2.30;99.90
62904;DHT22;49000;50.698;13.322;2023-02-15T05:36:24;-2.90;99.90
62904;DHT22;49000;50.698;13.322;2023-02-15T05:38:49;-2.50;99.90
62904;DHT22;49000;50.698;13.322;2023-02-15T05:41:15;-2.40;99.90
62904;DHT22;49000;50.698;13.322;2023-02-15T05:43:40;-2.20;99.90
62904;DHT22;49000;50.698;13.322;2023-02-15T05:46:07;-2.70;99.90
62904;DHT22;49000;50.698;13.322;2023-02-15T05:48:33;-2.40;99.90
62904;DHT22;49000;50.698;13.322;2023-02-15T05:50:59;-2.20;99.90
62904;DHT22;49000;50.698;13.322;2023-02-15T05:53:26;-2.40;99.90
62904;DHT22;49000;50.698;13.322;2023-02-15T05:55:52;-2.20;99.90
62904;DHT22;49000;50.698;13.322;2023-02-15T05:58:19;-2.30;99.90
62904;DHT22;49000;50.698;13.322;2023-02-15T06:00:44;-2.30;99.90
62904;DHT22;49000;50.698;13.322;2023-02-15T06:03:10;-2.40;99.90
62904;DHT22;49000;50.698;13.322;2023-02-15T06:05:35;-2.50;99.90
62904;DHT22;49000;50.698;13.322;2023-02-15T06:08:01;-2.90;99.90
62904;DHT22;49000;50.698;13.322;2023-02-15T06:10:26;-2.90;99.90
62904;DHT22;49000;50.698;13.322;2023-02-15T06:12:52;-2.50;99.90
62904;DHT22;49000;50.698;13.322;2023-02-15T06:15:17;-2.90;99.90
62904;DHT22;49000;50.698;13.322;2023-02-15T06:17:43;-2.90;99.90
62904;DHT22;49000;50.698;13.322;2023-02-15T06:20:09;-2.50;99.90
62904;DHT22;49000;50.698;13.322;2023-02-15T06:22:34;-2.70;99.90
62904;DHT22;49000;50.698;13.322;2023-02-15T06:25:00;-2.60;99.90
62904;DHT22;49000;50.698;13.322;2023-02-15T06:27:25;-3.10;99.90
62904;DHT22;49000;50.698;13.322;2023-02-15T06:29:51;-2.70;99.90
62904;DHT22;49000;50.698;13.322;2023-02-15T06:32:16;-2.40;99.90
62904;DHT22;49000;50.698;13.322;2023-02-15T06:34:42;-2.40;99.90
62904;DHT22;49000;50.698;13.322;2023-02-15T06:37:07;-3.00;99.90
62904;DHT22;49000;50.698;13.322;2023-02-15T06:39:33;-3.20;99.90
62904;DHT22;49000;50.698;13.322;2023-02-15T06:41:59;-3.00;99.90
62904;DHT22;49000;50.698;13.322;2023-02-15T06:44:24;-2.70;99.90
62904;DHT22;49000;50.698;13.322;2023-02-15T06:46:50;-2.40;99.90
62904;DHT22;49000;50.698;13.322;2023-02-15T06:49:15;-2.20;99.90
62904;DHT22;49000;50.698;13.322;2023-02-15T06:51:41;-2.80;99.90
62904;DHT22;49000;50.698;13.322;2023-02-15T06:54:06;-2.20;99.90
62904;DHT22;49000;50.698;13.322;2023-02-15T06:56:32;-2.20;99.90
62904;DHT22;49000;50.698;13.322;2023-02-15T06:58:57;-2.60;99.90
62904;DHT22;49000;50.698;13.322;2023-02-15T07:01:23;-2.40;99.90
62904;DHT22;49000;50.698;13.322;2023-02-15T07:03:48;-2.20;99.90
62904;DHT22;49000;50.698;13.322;2023-02-15T07:06:14;-2.10;99.90
62904;DHT22;49000;50.698;13.322;2023-02-15T07:08:40;-2.40;99.90
62904;DHT22;49000;50.698;13.322;2023-02-15T07:11:06;-2.20;99.90
62904;DHT22;49000;50.698;13.322;2023-02-15T07:13:50;-2.40;99.90
62904;DHT22;49000;50.698;13.322;2023-02-15T07:16:15;-2.40;99.90
62904;DHT22;49000;50.698;13.322;2023-02-15T07:18:41;-2.40;99.90
62904;DHT22;49000;50.698;13.322;2023-02-15T07:21:07;-1.90;99.90
62904;DHT22;49000;50.698;13.322;2023-02-15T07:23:36;-1.80;99.90
62904;DHT22;49000;50.698;13.322;2023-02-15T07:26:03;-1.90;99.90
62904;DHT22;49000;50.698;13.322;2023-02-15T07:28:29;-2.40;99.90
62904;DHT22;49000;50.698;13.322;2023-02-15T07:30:54;-2.30;99.90
62904;DHT22;49000;50.698;13.322;2023-02-15T07:33:20;-2.30;99.90
62904;DHT22;49000;50.698;13.322;2023-02-15T07:35:59;-1.60;99.90
62904;DHT22;49000;50.698;13.322;2023-02-15T07:38:29;-1.70;99.90
62904;DHT22;49000;50.698;13.322;2023-02-15T07:40:59;-1.50;99.90
62904;DHT22;49000;50.698;13.322;2023-02-15T07:43:26;-2.10;99.90
62904;DHT22;49000;50.698;13.322;2023-02-15T07:45:51;-2.00;99.90
62904;DHT22;49000;50.698;13.322;2023-02-15T07:48:17;-1.60;99.90
62904;DHT22;49000;50.698;13.322;2023-02-15T07:50:42;-2.00;99.90
62904;DHT22;49000;50.698;13.322;2023-02-15T07:53:08;-1.40;99.90
62904;DHT22;49000;50.698;13.322;2023-02-15T07:55:33;-1.50;99.90
62904;DHT22;49000;50.698;13.322;2023-02-15T07:57:59;-1.40;99.90
62904;DHT22;49000;50.698;13.322;2023-02-15T08:00:24;-1.20;99.90
62904;DHT22;49000;50.698;13.322;2023-02-15T08:02:52;-1.20;99.90
62904;DHT22;49000;50.698;13.322;2023-02-15T08:05:41;-1.10;99.90
62904;DHT22;49000;50.698;13.322;2023-02-15T08:08:08;-1.00;99.90
62904;DHT22;49000;50.698;13.322;2023-02-15T08:10:35;-1.70;99.90
62904;DHT22;49000;50.698;13.322;2023-02-15T08:13:19;-1.30;99.90
62904;DHT22;49000;50.698;13.322;2023-02-15T08:15:49;-1.20;99.90
62904;DHT22;49000;50.698;13.322;2023-02-15T08:18:14;-1.00;99.90
62904;DHT22;49000;50.698;13.322;2023-02-15T08:20:40;-1.50;99.90
62904;DHT22;49000;50.698;13.322;2023-02-15T08:23:05;-1.50;99.90
62904;DHT22;49000;50.698;13.322;2023-02-15T08:25:31;-0.80;99.90
62904;DHT22;49000;50.698;13.322;2023-02-15T08:27:56;-0.80;99.90
62904;DHT22;49000;50.698;13.322;2023-02-15T08:30:22;-0.80;99.90
62904;DHT22;49000;50.698;13.322;2023-02-15T08:32:47;-0.90;99.90
62904;DHT22;49000;50.698;13.322;2023-02-15T08:35:13;-0.80;99.90
62904;DHT22;49000;50.698;13.322;2023-02-15T08:37:38;-0.70;99.90
62904;DHT22;49000;50.698;13.322;2023-02-15T08:40:04;-0.70;99.90
62904;DHT22;49000;50.698;13.322;2023-02-15T08:42:32;-0.50;99.90
62904;DHT22;49000;50.698;13.322;2023-02-15T08:44:58;-0.50;99.90
62904;DHT22;49000;50.698;13.322;2023-02-15T08:47:23;-0.40;99.90
62904;DHT22;49000;50.698;13.322;2023-02-15T08:49:49;-0.20;99.90
62904;DHT22;49000;50.698;13.322;2023-02-15T08:52:14;-0.60;99.90
62904;DHT22;49000;50.698;13.322;2023-02-15T08:54:39;-0.40;99.90
62904;DHT22;49000;50.698;13.322;2023-02-15T08:57:05;0.00;99.90
62904;DHT22;49000;50.698;13.322;2023-02-15T08:59:32;0.10;99.90
62904;DHT22;49000;50.698;13.322;2023-02-15T09:01:58;0.40;99.90
62904;DHT22;49000;50.698;13.322;2023-02-15T09:04:24;-0.10;99.90
62904;DHT22;49000;50.698;13.322;2023-02-15T09:06:50;0.70;99.90
62904;DHT22;49000;50.698;13.322;2023-02-15T09:09:17;1.00;99.90
62904;DHT22;49000;50.698;13.322;2023-02-15T09:11:45;0.90;99.90
62904;DHT22;49000;50.698;13.322;2023-02-15T09:14:13;1.70;99.90
62904;DHT22;49000;50.698;13.322;2023-02-15T09:16:40;1.70;99.90
62904;DHT22;49000;50.698;13.322;2023-02-15T09:19:07;2.10;99.90
62904;DHT22;49000;50.698;13.322;2023-02-15T09:21:35;1.90;99.90
62904;DHT22;49000;50.698;13.322;2023-02-15T09:24:03;2.10;99.90
62904;DHT22;49000;50.698;13.322;2023-02-15T09:26:31;2.80;99.90
62904;DHT22;49000;50.698;13.322;2023-02-15T09:29:00;3.00;99.90
62904;DHT22;49000;50.698;13.322;2023-02-15T09:31:43;3.20;99.90
62904;DHT22;49000;50.698;13.322;2023-02-15T09:34:14;3.30;99.90
62904;DHT22;49000;50.698;13.322;2023-02-15T09:36:41;3.40;99.90
62904;DHT22;49000;50.698;13.322;2023-02-15T09:39:15;3.50;99.90
62904;DHT22;49000;50.698;13.322;2023-02-15T09:42:11;3.80;99.90
62904;DHT22;49000;50.698;13.322;2023-02-15T09:45:14;3.90;99.90
62904;DHT22;49000;50.698;13.322;2023-02-15T09:49:09;4.20;99.90
62904;DHT22;49000;50.698;13.322;2023-02-15T09:54:03;4.40;99.90
62904;DHT22;49000;50.698;13.322;2023-02-15T09:56:42;4.80;99.90
62904;DHT22;49000;50.698;13.322;2023-02-15T09:59:35;4.60;99.90
62904;DHT22;49000;50.698;13.322;2023-02-15T10:02:27;5.20;99.90
62904;DHT22;49000;50.698;13.322;2023-02-15T10:05:12;5.30;99.90
62904;DHT22;49000;50.698;13.322;2023-02-15T10:07:54;5.20;99.90
62904;DHT22;49000;50.698;13.322;2023-02-15T10:13:35;5.90;99.90
62904;DHT22;49000;50.698;13.322;2023-02-15T10:16:34;6.10;99.90
62904;DHT22;49000;50.698;13.322;2023-02-15T10:19:23;6.20;98.80
62904;DHT22;49000;50.698;13.322;2023-02-15T10:22:05;6.30;99.20
62904;DHT22;49000;50.698;13.322;2023-02-15T10:24:54;6.50;98.60
62904;DHT22;49000;50.698;13.322;2023-02-15T10:27:22;6.80;96.00
62904;DHT22;49000;50.698;13.322;2023-02-15T10:32:41;6.90;96.20
62904;DHT22;49000;50.698;13.322;2023-02-15T10:38:20;7.40;93.60
62904;DHT22;49000;50.698;13.322;2023-02-15T10:43:40;7.40;91.40
62904;DHT22;49000;50.698;13.322;2023-02-15T10:54:13;7.70;85.40
62904;DHT22;49000;50.698;13.322;2023-02-15T10:59:30;8.00;86.00
62904;DHT22;49000;50.698;13.322;2023-02-15T11:02:18;8.20;82.20
62904;DHT22;49000;50.698;13.322;2023-02-15T11:05:25;8.30;83.40
62904;DHT22;49000;50.698;13.322;2023-02-15T11:07:57;8.40;82.20
62904;DHT22;49000;50.698;13.322;2023-02-15T11:13:16;8.60;80.60
62904;DHT22;49000;50.698;13.322;2023-02-15T11:15:57;8.70;77.40
62904;DHT22;49000;50.698;13.322;2023-02-15T11:23:43;8.90;73.90
62904;DHT22;49000;50.698;13.322;2023-02-15T11:26:16;9.10;75.90
62904;DHT22;49000;50.698;13.322;2023-02-15T11:28:51;9.10;75.30
62904;DHT22;49000;50.698;13.322;2023-02-15T11:31:24;9.20;77.80
62904;DHT22;49000;50.698;13.322;2023-02-15T11:34:03;9.20;78.00
62904;DHT22;49000;50.698;13.322;2023-02-15T11:36:37;9.30;73.20
62904;DHT22;49000;50.698;13.322;2023-02-15T11:39:12;9.50;74.70
62904;DHT22;49000;50.698;13.322;2023-02-15T11:41:43;9.50;71.40
62904;DHT22;49000;50.698;13.322;2023-02-15T11:44:17;9.60;72.90
62904;DHT22;49000;50.698;13.322;2023-02-15T11:46:43;9.60;69.30
62904;DHT22;49000;50.698;13.322;2023-02-15T11:49:32;9.60;70.60
62904;DHT22;49000;50.698;13.322;2023-02-15T11:52:00;9.90;71.30
62904;DHT22;49000;50.698;13.322;2023-02-15T11:54:30;9.80;71.40
62904;DHT22;49000;50.698;13.322;2023-02-15T11:59:56;9.90;68.20
62904;DHT22;49000;50.698;13.322;2023-02-15T12:02:23;9.90;67.70
62904;DHT22;49000;50.698;13.322;2023-02-15T12:05:04;9.90;65.60
62904;DHT22;49000;50.698;13.322;2023-02-15T12:07:37;10.00;64.50
62904;DHT22;49000;50.698;13.322;2023-02-15T12:10:19;10.20;59.90
62904;DHT22;49000;50.698;13.322;2023-02-15T12:12:46;10.40;63.70
62904;DHT22;49000;50.698;13.322;2023-02-15T12:15:12;10.70;65.40
62904;DHT22;49000;50.698;13.322;2023-02-15T12:17:41;10.80;66.50
62904;DHT22;49000;50.698;13.322;2023-02-15T12:22:39;11.00;64.90
62904;DHT22;49000;50.698;13.322;2023-02-15T12:25:24;11.20;62.90
62904;DHT22;49000;50.698;13.322;2023-02-15T12:27:51;11.30;57.70
62904;DHT22;49000;50.698;13.322;2023-02-15T12:30:36;11.50;60.90
62904;DHT22;49000;50.698;13.322;2023-02-15T12:33:14;11.60;60.20
62904;DHT22;49000;50.698;13.322;2023-02-15T12:35:42;11.60;57.20
62904;DHT22;49000;50.698;13.322;2023-02-15T12:40:37;11.70;58.10
62904;DHT22;49000;50.698;13.322;2023-02-15T12:43:03;11.80;56.60
62904;DHT22;49000;50.698;13.322;2023-02-15T12:45:36;11.80;54.00
62904;DHT22;49000;50.698;13.322;2023-02-15T12:50:33;11.70;50.20
62904;DHT22;49000;50.698;13.322;2023-02-15T12:55:54;11.60;52.10
62904;DHT22;49000;50.698;13.322;2023-02-15T12:58:23;11.60;54.00
62904;DHT22;49000;50.698;13.322;2023-02-15T13:03:35;12.10;55.60
62904;DHT22;49000;50.698;13.322;2023-02-15T13:06:01;12.00;53.30
62904;DHT22;49000;50.698;13.322;2023-02-15T13:08:30;12.20;53.50
62904;DHT22;49000;50.698;13.322;2023-02-15T13:11:06;12.30;50.70
62904;DHT22;49000;50.698;13.322;2023-02-15T13:13:45;12.30;49.60
62904;DHT22;49000;50.698;13.322;2023-02-15T13:16:13;12.40;45.50
62904;DHT22;49000;50.698;13.322;2023-02-15T13:18:43;12.40;44.60
62904;DHT22;49000;50.698;13.322;2023-02-15T13:21:18;12.50;44.50
62904;DHT22;49000;50.698;13.322;2023-02-15T13:23:48;12.60;44.70
62904;DHT22;49000;50.698;13.322;2023-02-15T13:26:19;12.60;44.80
62904;DHT22;49000;50.698;13.322;2023-02-15T13:28:48;12.70;48.00
62904;DHT22;49000;50.698;13.322;2023-02-15T13:31:18;12.70;46.90
62904;DHT22;49000;50.698;13.322;2023-02-15T13:34:05;12.80;44.80
62904;DHT22;49000;50.698;13.322;2023-02-15T13:36:47;12.60;46.00
62904;DHT22;49000;50.698;13.322;2023-02-15T13:39:29;12.70;46.60
62904;DHT22;49000;50.698;13.322;2023-02-15T13:42:00;12.90;47.10
62904;DHT22;49000;50.698;13.322;2023-02-15T13:45:04;13.00;47.70
62904;DHT22;49000;50.698;13.322;2023-02-15T14:01:48;14.00;47.40
62904;DHT22;49000;50.698;13.322;2023-02-15T14:07:59;14.40;46.10
62904;DHT22;49000;50.698;13.322;2023-02-15T14:13:05;13.90;43.20
62904;DHT22;49000;50.698;13.322;2023-02-15T14:15:48;13.70;43.50
62904;DHT22;49000;50.698;13.322;2023-02-15T14:18:38;13.70;43.60
62904;DHT22;49000;50.698;13.322;2023-02-15T14:21:30;14.00;41.40
62904;DHT22;49000;50.698;13.322;2023-02-15T14:24:17;14.40;39.40
62904;DHT22;49000;50.698;13.322;2023-02-15T14:29:46;14.70;35.50
62904;DHT22;49000;50.698;13.322;2023-02-15T14:32:18;14.80;37.90
62904;DHT22;49000;50.698;13.322;2023-02-15T14:34:57;14.90;34.20
62904;DHT22;49000;50.698;13.322;2023-02-15T14:37:42;14.90;35.90
62904;DHT22;49000;50.698;13.322;2023-02-15T14:40:23;15.00;34.70
62904;DHT22;49000;50.698;13.322;2023-02-15T14:46:40;15.60;33.50
62904;DHT22;49000;50.698;13.322;2023-02-15T14:49:25;16.00;34.20
62904;DHT22;49000;50.698;13.322;2023-02-15T14:57:31;16.60;28.10
62904;DHT22;49000;50.698;13.322;2023-02-15T15:05:17;16.40;28.20
62904;DHT22;49000;50.698;13.322;2023-02-15T15:07:52;16.20;29.30
62904;DHT22;49000;50.698;13.322;2023-02-15T15:15:45;15.60;32.80
62904;DHT22;49000;50.698;13.322;2023-02-15T15:18:47;15.50;33.00
62904;DHT22;49000;50.698;13.322;2023-02-15T15:38:46;12.60;41.70
62904;DHT22;49000;50.698;13.322;2023-02-15T15:41:35;11.90;40.40
62904;DHT22;49000;50.698;13.322;2023-02-15T15:44:42;11.50;43.60
62904;DHT22;49000;50.698;13.322;2023-02-15T15:49:58;10.50;43.10
62904;DHT22;49000;50.698;13.322;2023-02-15T15:52:25;10.30;45.50
62904;DHT22;49000;50.698;13.322;2023-02-15T15:54:57;10.40;45.10
62904;DHT22;49000;50.698;13.322;2023-02-15T15:57:29;10.50;43.00
62904;DHT22;49000;50.698;13.322;2023-02-15T15:59:56;10.40;43.90
62904;DHT22;49000;50.698;13.322;2023-02-15T16:02:25;10.60;42.90
62904;DHT22;49000;50.698;13.322;2023-02-15T16:04:50;10.30;42.70
62904;DHT22;49000;50.698;13.322;2023-02-15T16:09:53;9.30;45.10
62904;DHT22;49000;50.698;13.322;2023-02-15T16:12:19;8.80;47.80
62904;DHT22;49000;50.698;13.322;2023-02-15T16:14:45;8.50;45.90
62904;DHT22;49000;50.698;13.322;2023-02-15T16:17:20;8.30;48.20
62904;DHT22;49000;50.698;13.322;2023-02-15T16:19:47;8.40;47.00
62904;DHT22;49000;50.698;13.322;2023-02-15T16:22:20;8.30;45.80
62904;DHT22;49000;50.698;13.322;2023-02-15T16:25:07;8.20;45.80
62904;DHT22;49000;50.698;13.322;2023-02-15T16:27:41;8.10;45.70
62904;DHT22;49000;50.698;13.322;2023-02-15T16:30:21;7.90;45.30
62904;DHT22;49000;50.698;13.322;2023-02-15T16:32:47;7.70;45.40
62904;DHT22;49000;50.698;13.322;2023-02-15T16:35:16;7.60;46.30
62904;DHT22;49000;50.698;13.322;2023-02-15T16:37:42;7.40;45.90
62904;DHT22;49000;50.698;13.322;2023-02-15T16:42:52;6.80;47.10
62904;DHT22;49000;50.698;13.322;2023-02-15T16:45:21;6.70;46.90
62904;DHT22;49000;50.698;13.322;2023-02-15T16:47:50;6.70;47.40
62904;DHT22;49000;50.698;13.322;2023-02-15T16:50:20;6.50;47.70
62904;DHT22;49000;50.698;13.322;2023-02-15T16:52:49;6.40;48.20
62904;DHT22;49000;50.698;13.322;2023-02-15T16:55:27;5.90;48.10
62904;DHT22;49000;50.698;13.322;2023-02-15T16:58:00;5.90;49.10
62904;DHT22;49000;50.698;13.322;2023-02-15T17:00:35;5.90;48.90
62904;DHT22;49000;50.698;13.322;2023-02-15T17:03:04;5.80;49.30
62904;DHT22;49000;50.698;13.322;2023-02-15T17:05:48;5.70;50.10
62904;DHT22;49000;50.698;13.322;2023-02-15T17:11:15;5.30;52.30
62904;DHT22;49000;50.698;13.322;2023-02-15T17:16:50;4.70;53.20
62904;DHT22;49000;50.698;13.322;2023-02-15T17:19:27;5.10;53.30
62904;DHT22;49000;50.698;13.322;2023-02-15T17:21:59;4.80;54.00
62904;DHT22;49000;50.698;13.322;2023-02-15T17:24:35;4.40;54.70
62904;DHT22;49000;50.698;13.322;2023-02-15T17:27:05;4.50;55.50
62904;DHT22;49000;50.698;13.322;2023-02-15T17:29:39;4.20;57.20
62904;DHT22;49000;50.698;13.322;2023-02-15T17:32:12;4.20;59.20
62904;DHT22;49000;50.698;13.322;2023-02-15T17:34:47;3.60;60.40
62904;DHT22;49000;50.698;13.322;2023-02-15T17:40:29;3.90;62.30
62904;DHT22;49000;50.698;13.322;2023-02-15T17:42:55;3.80;62.30
62904;DHT22;49000;50.698;13.322;2023-02-15T17:45:22;3.30;65.30
62904;DHT22;49000;50.698;13.322;2023-02-15T17:47:50;3.20;67.00
62904;DHT22;49000;50.698;13.322;2023-02-15T17:50:20;2.90;69.40
62904;DHT22;49000;50.698;13.322;2023-02-15T17:52:46;3.10;70.90
62904;DHT22;49000;50.698;13.322;2023-02-15T17:55:15;3.00;73.40
62904;DHT22;49000;50.698;13.322;2023-02-15T17:58:00;3.00;74.50
62904;DHT22;49000;50.698;13.322;2023-02-15T18:00:26;3.20;73.70
62904;DHT22;49000;50.698;13.322;2023-02-15T18:03:11;2.80;76.70
62904;DHT22;49000;50.698;13.322;2023-02-15T18:05:56;2.80;77.30
62904;DHT22;49000;50.698;13.322;2023-02-15T18:08:40;2.90;77.50
62904;DHT22;49000;50.698;13.322;2023-02-15T18:11:24;2.40;80.80
62904;DHT22;49000;50.698;13.322;2023-02-15T18:14:07;2.20;85.90
62904;DHT22;49000;50.698;13.322;2023-02-15T18:16:39;2.30;87.70